createdAt,value
2022-12-01T00:01:07.231Z,18.80
2022-12-01T00:03:34.117Z,20.10
2022-12-01T00:06:01.668Z,21.37
2022-12-01T00:08:30.037Z,19.23
2022-12-01T00:11:03.446Z,19.30
2022-12-01T00:13:30.103Z,19.87
2022-12-01T00:15:56.659Z,20.53
2022-12-01T00:18:23.187Z,20.33
2022-12-01T00:20:55.889Z,21.60
2022-12-01T00:23:23.181Z,20.00
2022-12-01T00:25:51.090Z,19.07
2022-12-01T00:28:17.670Z,20.33
2022-12-01T00:30:44.321Z,18.67
2022-12-01T00:33:10.899Z,19.13
2022-12-01T00:35:37.423Z,17.90
2022-12-01T00:38:03.980Z,19.90
2022-12-01T00:40:30.513Z,18.70
2022-12-01T00:42:58.380Z,19.43
2022-12-01T00:45:24.918Z,19.00
2022-12-01T00:47:51.449Z,18.33
2022-12-01T00:50:17.975Z,19.30
2022-12-01T00:52:44.505Z,18.50
2022-12-01T00:55:11.158Z,19.70
2022-12-01T00:57:37.751Z,18.80
2022-12-01T01:00:07.075Z,20.87
2022-12-01T01:02:33.693Z,18.40
2022-12-01T01:05:00.273Z,20.13
2022-12-01T01:07:26.834Z,19.27
2022-12-01T01:09:53.392Z,19.33
2022-12-01T01:12:19.936Z,20.57
2022-12-01T01:14:46.451Z,19.80
2022-12-01T01:17:14.317Z,16.70
2022-12-01T01:19:40.829Z,19.40
2022-12-01T01:22:07.364Z,18.53
2022-12-01T01:24:33.891Z,17.87
2022-12-01T01:27:00.489Z,19.03
2022-12-01T01:29:27.035Z,18.33
2022-12-01T01:31:53.588Z,20.47
2022-12-01T01:34:21.461Z,18.57
2022-12-01T01:36:48.534Z,18.33
2022-12-01T01:39:15.187Z,17.23
2022-12-01T01:41:42.005Z,19.30
2022-12-01T01:44:41.863Z,17.50
2022-12-01T01:47:08.474Z,20.63
2022-12-01T01:49:36.555Z,18.47
2022-12-01T01:52:04.551Z,19.40
2022-12-01T01:54:35.787Z,18.87
2022-12-01T01:57:05.241Z,18.63
2022-12-01T01:59:36.296Z,18.48
2022-12-01T02:02:08.876Z,18.73
2022-12-01T02:04:40.249Z,17.43
2022-12-01T02:07:08.323Z,19.07
2022-12-01T02:09:36.172Z,17.23
2022-12-01T02:12:16.127Z,19.70
2022-12-01T02:15:03.774Z,16.93
2022-12-01T02:17:41.512Z,19.43
2022-12-01T02:20:44.982Z,18.20
2022-12-01T02:23:41.540Z,18.67
2022-12-01T02:26:25.613Z,17.83
2022-12-01T02:29:11.106Z,18.57
2022-12-01T02:31:47.039Z,17.37
2022-12-01T02:34:19.349Z,16.73
2022-12-01T02:36:52.654Z,18.20
2022-12-01T02:39:26.963Z,16.43
2022-12-01T02:41:59.263Z,17.07
2022-12-01T02:44:32.357Z,17.77
2022-12-01T02:47:05.258Z,18.60
2022-12-01T02:49:36.155Z,19.77
2022-12-01T02:52:05.989Z,17.40
2022-12-01T02:54:33.637Z,17.83
2022-12-01T02:57:00.183Z,16.47
2022-12-01T02:59:26.739Z,17.90
2022-12-01T03:02:06.061Z,17.33
2022-12-01T03:04:53.010Z,19.08
2022-12-01T03:07:38.335Z,17.87
2022-12-01T03:10:15.288Z,16.93
2022-12-01T03:12:55.762Z,16.27
2022-12-01T03:15:33.954Z,17.63
2022-12-01T03:18:10.093Z,17.30
2022-12-01T03:20:41.210Z,20.80
2022-12-01T03:23:10.811Z,16.17
2022-12-01T03:25:41.820Z,17.75
2022-12-01T03:28:21.313Z,17.30
2022-12-01T03:30:52.416Z,18.60
2022-12-01T03:33:26.403Z,16.93
2022-12-01T03:35:57.790Z,17.10
2022-12-01T03:38:26.318Z,17.00
2022-12-01T03:40:58.226Z,16.77
2022-12-01T03:43:30.277Z,17.43
2022-12-01T03:46:03.263Z,17.17
2022-12-01T03:48:31.686Z,18.77
2022-12-01T03:51:06.648Z,18.30
2022-12-01T03:53:39.980Z,15.97
2022-12-01T03:56:07.738Z,17.03
2022-12-01T03:58:38.341Z,16.60
2022-12-01T04:01:07.149Z,16.57
2022-12-01T04:03:35.166Z,18.63
2022-12-01T04:06:01.719Z,17.17
2022-12-01T04:08:30.590Z,19.43
2022-12-01T04:10:57.368Z,18.73
2022-12-01T04:13:23.967Z,17.33
2022-12-01T04:15:51.304Z,18.90
2022-12-01T04:18:18.406Z,17.60
2022-12-01T04:20:47.011Z,17.00
2022-12-01T04:23:33.744Z,16.90
2022-12-01T04:26:01.118Z,17.80
2022-12-01T04:28:27.649Z,18.10
2022-12-01T04:30:54.428Z,16.70
2022-12-01T04:33:21.763Z,15.93
2022-12-01T04:35:57.716Z,16.63
2022-12-01T04:38:30.059Z,17.27
2022-12-01T04:40:57.246Z,17.13
2022-12-01T04:43:23.806Z,18.07
2022-12-01T04:45:50.319Z,17.80
2022-12-01T04:48:16.897Z,16.80
2022-12-01T04:50:43.434Z,17.80
2022-12-01T04:53:11.273Z,16.47
2022-12-01T04:55:39.093Z,18.33
2022-12-01T04:58:05.728Z,17.03
2022-12-01T05:00:32.373Z,17.30
2022-12-01T05:02:59.768Z,16.17
2022-12-01T05:05:26.457Z,17.60
2022-12-01T05:07:53.006Z,16.30
2022-12-01T05:10:21.501Z,16.83
2022-12-01T05:12:48.063Z,16.50
2022-12-01T05:15:14.644Z,17.83
2022-12-01T05:17:41.402Z,15.73
2022-12-01T05:20:37.806Z,17.90
2022-12-01T05:23:06.036Z,18.13
2022-12-01T05:25:34.650Z,16.30
2022-12-01T05:28:01.184Z,20.30
2022-12-01T05:30:28.930Z,18.57
2022-12-01T05:32:55.809Z,16.73
2022-12-01T05:35:22.596Z,16.00
2022-12-01T05:37:49.158Z,16.57
2022-12-01T05:40:15.936Z,16.30
2022-12-01T05:42:43.808Z,16.73
2022-12-01T05:45:10.982Z,15.83
2022-12-01T05:47:37.502Z,16.13
2022-12-01T05:50:05.967Z,17.57
2022-12-01T05:52:34.098Z,17.90
2022-12-01T05:55:00.656Z,17.43
2022-12-01T05:57:27.193Z,18.17
2022-12-01T05:59:55.289Z,16.77
2022-12-01T06:02:21.884Z,16.87
2022-12-01T06:04:48.480Z,16.80
2022-12-01T06:07:15.006Z,16.40
2022-12-01T06:09:41.527Z,17.10
2022-12-01T06:12:08.058Z,19.13
2022-12-01T06:14:34.571Z,15.40
2022-12-01T06:17:02.514Z,16.27
2022-12-01T06:19:29.122Z,17.97
2022-12-01T06:21:55.668Z,17.37
2022-12-01T06:24:22.218Z,15.63
2022-12-01T06:26:48.885Z,14.87
2022-12-01T06:29:15.711Z,15.50
2022-12-01T06:31:42.323Z,15.70
2022-12-01T06:34:10.638Z,15.83
2022-12-01T06:36:37.203Z,17.97
2022-12-01T06:39:06.521Z,17.20
2022-12-01T06:41:33.039Z,16.20
2022-12-01T06:44:01.015Z,16.27
2022-12-01T06:46:27.657Z,16.43
2022-12-01T06:48:54.343Z,16.77
2022-12-01T06:51:22.379Z,16.10
2022-12-01T06:53:53.459Z,17.20
2022-12-01T06:56:20.573Z,16.77
2022-12-01T06:58:48.567Z,16.20
2022-12-01T07:01:16.075Z,16.97
2022-12-01T07:03:43.018Z,16.43
2022-12-01T07:06:09.818Z,16.63
2022-12-01T07:08:37.702Z,16.13
2022-12-01T07:11:05.804Z,14.87
2022-12-01T07:13:33.946Z,16.40
2022-12-01T07:16:01.595Z,18.20
2022-12-01T07:18:28.779Z,16.67
2022-12-01T07:20:59.051Z,16.97
2022-12-01T07:23:25.565Z,16.37
2022-12-01T07:25:59.693Z,17.33
2022-12-01T07:28:26.905Z,16.10
2022-12-01T07:30:53.504Z,16.80
2022-12-01T07:33:20.243Z,20.07
2022-12-01T07:35:46.785Z,22.03
2022-12-01T07:38:17.777Z,16.70
2022-12-01T07:40:47.159Z,22.53
2022-12-01T07:43:15.058Z,16.17
2022-12-01T07:45:41.621Z,22.07
2022-12-01T07:48:08.203Z,19.90
2022-12-01T07:50:34.708Z,16.80
2022-12-01T07:53:01.242Z,18.87
2022-12-01T07:55:27.789Z,24.03
2022-12-01T07:57:54.325Z,23.47
2022-12-01T08:00:22.692Z,23.80
2022-12-01T08:02:49.453Z,22.00
2022-12-01T08:05:16.182Z,21.73
2022-12-01T08:07:42.708Z,21.80
2022-12-01T08:10:10.113Z,22.50
2022-12-01T08:12:36.646Z,22.40
2022-12-01T08:15:03.558Z,23.77
2022-12-01T08:17:31.428Z,22.07
2022-12-01T08:19:57.924Z,21.93
2022-12-01T08:22:24.470Z,21.97
2022-12-01T08:24:50.987Z,22.53
2022-12-01T08:27:17.504Z,24.50
2022-12-01T08:29:44.056Z,21.63
2022-12-01T08:32:10.613Z,22.73
2022-12-01T08:34:38.769Z,21.10
2022-12-01T08:37:05.304Z,24.63
2022-12-01T08:39:31.843Z,25.70
2022-12-01T08:41:58.454Z,24.73
2022-12-01T08:44:25.050Z,22.10
2022-12-01T08:46:51.730Z,23.87
2022-12-01T08:49:18.280Z,21.60
2022-12-01T08:51:46.144Z,24.10
2022-12-01T08:54:12.693Z,21.57
2022-12-01T08:56:41.211Z,21.87
2022-12-01T08:59:08.528Z,21.43
2022-12-01T09:01:35.861Z,20.63
2022-12-01T09:04:06.172Z,21.40
2022-12-01T09:06:34.988Z,23.63
2022-12-01T09:09:02.919Z,25.57
2022-12-01T09:11:29.469Z,22.47
2022-12-01T09:13:56.019Z,23.03
2022-12-01T09:16:22.587Z,25.97
2022-12-01T09:18:49.304Z,26.30
2022-12-01T09:21:17.869Z,23.43
2022-12-01T09:23:44.745Z,25.33
2022-12-01T09:26:17.997Z,22.93
2022-12-01T09:28:44.736Z,23.90
2022-12-01T09:31:12.980Z,25.33
2022-12-01T09:33:39.982Z,23.67
2022-12-01T09:36:08.368Z,21.67
2022-12-01T09:38:36.430Z,22.10
2022-12-01T09:41:07.023Z,21.97
2022-12-01T09:43:41.416Z,23.27
2022-12-01T09:46:14.387Z,21.83
2022-12-01T09:48:44.896Z,22.07
2022-12-01T09:51:14.445Z,23.73
2022-12-01T09:53:41.911Z,25.38
2022-12-01T09:56:18.404Z,24.87
2022-12-01T09:58:50.725Z,22.70
2022-12-01T10:01:23.036Z,21.57
2022-12-01T10:03:57.670Z,21.70
2022-12-01T10:06:32.158Z,21.30
2022-12-01T10:09:07.958Z,21.80
2022-12-01T10:11:36.901Z,21.27
2022-12-01T10:14:16.414Z,22.05
2022-12-01T10:16:55.622Z,22.40
2022-12-01T10:19:28.603Z,19.77
2022-12-01T10:22:15.038Z,21.97
2022-12-01T10:24:53.173Z,21.97
2022-12-01T10:27:35.090Z,20.93
2022-12-01T10:30:06.955Z,22.53
2022-12-01T10:32:44.906Z,20.17
2022-12-01T10:35:15.279Z,21.57
2022-12-01T10:37:45.447Z,22.67
2022-12-01T10:40:14.540Z,23.57
2022-12-01T10:42:42.874Z,21.30
2022-12-01T10:45:16.786Z,20.83
2022-12-01T10:48:08.692Z,22.27
2022-12-01T10:50:36.391Z,20.23
2022-12-01T10:53:03.712Z,18.97
2022-12-01T10:55:35.010Z,19.70
2022-12-01T10:58:12.927Z,20.87
2022-12-01T11:00:59.661Z,18.37
2022-12-01T11:03:30.277Z,20.63
2022-12-01T11:06:00.924Z,20.03
2022-12-01T11:08:36.294Z,20.30
2022-12-01T11:11:03.301Z,20.57
2022-12-01T11:13:33.969Z,19.97
2022-12-01T11:16:04.736Z,19.47
2022-12-01T11:18:33.589Z,21.57
2022-12-01T11:21:08.988Z,20.58
2022-12-01T11:23:37.617Z,20.30
2022-12-01T11:26:13.351Z,19.53
2022-12-01T11:28:50.672Z,18.13
2022-12-01T11:31:20.531Z,19.90
2022-12-01T11:33:51.023Z,18.83
2022-12-01T11:36:25.823Z,17.63
2022-12-01T11:38:57.404Z,18.10
2022-12-01T11:41:31.339Z,18.03
2022-12-01T11:44:02.100Z,17.70
2022-12-01T11:46:36.968Z,17.80
2022-12-01T11:49:04.080Z,18.83
2022-12-01T11:51:37.017Z,17.80
2022-12-01T11:54:16.627Z,17.73
2022-12-01T11:56:44.572Z,18.42
2022-12-01T11:59:13.584Z,17.00
2022-12-01T12:01:53.133Z,17.17
2022-12-01T12:04:40.083Z,18.13
2022-12-01T12:07:13.386Z,18.53
2022-12-01T12:10:01.724Z,17.50
2022-12-01T12:12:43.453Z,17.83
2022-12-01T12:15:25.880Z,17.10
2022-12-01T12:18:14.018Z,17.93
2022-12-01T12:20:54.619Z,17.30
2022-12-01T12:23:36.399Z,18.00
2022-12-01T12:26:09.681Z,16.93
2022-12-01T12:28:52.551Z,18.60
2022-12-01T12:31:28.151Z,16.97
2022-12-01T12:34:10.823Z,17.10
2022-12-01T12:36:43.748Z,16.60
2022-12-01T12:39:28.405Z,17.93
2022-12-01T12:41:57.023Z,16.93
2022-12-01T12:44:46.300Z,16.30
2022-12-01T12:47:25.478Z,16.73
2022-12-01T12:50:03.071Z,15.77
2022-12-01T12:52:33.443Z,17.23
2022-12-01T12:55:10.874Z,16.83
2022-12-01T12:57:43.479Z,16.67
2022-12-01T13:00:15.963Z,15.67
2022-12-01T13:02:47.148Z,18.03
2022-12-01T13:05:20.563Z,17.23
2022-12-01T13:07:52.141Z,16.70
2022-12-01T13:10:28.246Z,15.77
2022-12-01T13:13:00.541Z,16.87
2022-12-01T13:15:28.815Z,16.03
2022-12-01T13:17:58.416Z,16.10
2022-12-01T13:20:29.125Z,17.42
2022-12-01T13:22:57.689Z,16.10
2022-12-01T13:25:28.207Z,15.10
2022-12-01T13:27:56.511Z,15.60
2022-12-01T13:30:26.060Z,16.10
2022-12-01T13:33:00.921Z,14.50
2022-12-01T13:35:31.036Z,16.70
2022-12-01T13:38:22.165Z,16.70
2022-12-01T13:40:49.689Z,15.83
2022-12-01T13:43:19.617Z,15.53
2022-12-01T13:45:47.920Z,15.53
2022-12-01T13:48:29.799Z,15.23
2022-12-01T13:51:00.610Z,15.97
2022-12-01T13:53:30.226Z,17.30
2022-12-01T13:55:59.916Z,16.52
2022-12-01T14:01:43.633Z,15.40
2022-12-01T14:04:28.800Z,15.33
2022-12-01T14:07:23.680Z,15.83
2022-12-01T14:09:54.136Z,16.93
2022-12-01T14:12:24.197Z,15.33
2022-12-01T14:14:54.943Z,14.87
2022-12-01T14:17:28.903Z,16.63
2022-12-01T14:20:04.908Z,16.43
2022-12-01T14:22:36.749Z,16.13
2022-12-01T14:25:07.556Z,15.77
2022-12-01T14:27:37.035Z,15.60
2022-12-01T14:30:50.243Z,13.43
2022-12-01T14:33:46.412Z,13.50
2022-12-01T14:36:27.051Z,15.13
2022-12-01T14:39:03.360Z,14.43
2022-12-01T14:41:33.296Z,13.93
2022-12-01T14:44:05.821Z,15.10
2022-12-01T14:46:40.999Z,14.57
2022-12-01T14:49:14.087Z,16.33
2022-12-01T14:51:46.050Z,15.27
2022-12-01T14:54:20.944Z,14.43
2022-12-01T14:56:51.237Z,15.77
2022-12-01T14:59:22.007Z,15.83
2022-12-01T15:01:51.483Z,14.90
2022-12-01T15:04:18.515Z,14.55
2022-12-01T15:06:45.488Z,16.17
2022-12-01T15:12:04.726Z,15.15
2022-12-01T15:14:33.612Z,15.17
2022-12-01T15:17:02.623Z,15.35
2022-12-01T15:19:35.902Z,13.75
2022-12-01T15:22:06.520Z,15.50
2022-12-01T15:24:34.031Z,13.83
2022-12-01T15:27:04.037Z,14.73
2022-12-01T15:29:33.004Z,14.17
2022-12-01T15:32:01.419Z,15.17
2022-12-01T15:34:31.719Z,15.20
2022-12-01T15:36:59.718Z,13.63
2022-12-01T15:39:32.545Z,14.43
2022-12-01T15:42:00.041Z,13.87
2022-12-01T15:44:31.519Z,13.97
2022-12-01T15:46:58.325Z,14.53
2022-12-01T15:49:30.066Z,13.30
2022-12-01T15:52:06.210Z,14.90
2022-12-01T15:54:33.297Z,14.80
2022-12-01T15:57:00.788Z,14.47
2022-12-01T15:59:33.230Z,14.27
2022-12-01T16:02:05.515Z,14.57
2022-12-01T16:04:32.360Z,14.67
2022-12-01T16:07:01.851Z,13.53
2022-12-01T16:09:31.556Z,12.50
2022-12-01T16:12:23.506Z,13.25
2022-12-01T16:14:55.043Z,13.30
2022-12-01T16:17:22.973Z,14.33
2022-12-01T16:20:21.654Z,13.80
2022-12-01T16:22:52.573Z,13.27
2022-12-01T16:25:27.580Z,12.83
2022-12-01T16:27:56.879Z,13.17
2022-12-01T16:30:27.274Z,14.10
2022-12-01T16:33:01.780Z,12.47
2022-12-01T16:35:30.462Z,14.17
2022-12-01T16:37:58.075Z,13.37
2022-12-01T16:40:25.480Z,12.90
2022-12-01T16:42:52.228Z,13.23
2022-12-01T16:45:19.775Z,13.40
2022-12-01T16:47:48.546Z,12.93
2022-12-01T16:50:16.488Z,13.48
2022-12-01T16:52:44.696Z,14.77
2022-12-01T16:55:25.706Z,14.07
2022-12-01T16:57:52.287Z,12.10
2022-12-01T17:00:19.522Z,11.70
2022-12-01T17:02:47.491Z,14.20
2022-12-01T17:05:14.139Z,13.00
2022-12-01T17:07:40.708Z,12.50
2022-12-01T17:10:08.438Z,12.27
2022-12-01T17:12:34.947Z,13.00
2022-12-01T17:15:01.551Z,12.60
2022-12-01T17:17:28.508Z,12.77
2022-12-01T17:19:56.557Z,13.63
2022-12-01T17:22:23.291Z,12.13
2022-12-01T17:24:50.044Z,12.40
2022-12-01T17:27:16.858Z,12.90
2022-12-01T17:29:46.222Z,12.87
2022-12-01T17:34:40.239Z,12.50
2022-12-01T17:37:08.241Z,11.63
2022-12-01T17:39:34.789Z,12.53
2022-12-01T17:42:01.407Z,13.70
2022-12-01T17:44:28.137Z,12.27
2022-12-01T17:46:54.703Z,12.20
2022-12-01T17:49:21.426Z,12.17
2022-12-01T17:51:47.985Z,12.53
2022-12-01T17:54:15.964Z,12.47
2022-12-01T17:56:42.713Z,12.77
2022-12-01T17:59:09.275Z,12.07
2022-12-01T18:01:35.953Z,11.73
2022-12-01T18:04:02.602Z,12.30
2022-12-01T18:06:29.377Z,11.70
2022-12-01T18:08:57.360Z,11.40
2022-12-01T18:11:25.261Z,11.53
2022-12-01T18:13:52.438Z,12.10
2022-12-01T18:16:21.390Z,12.43
2022-12-01T18:18:48.447Z,10.82
2022-12-01T18:21:17.174Z,12.83
2022-12-01T18:23:49.201Z,12.70
2022-12-01T18:26:16.457Z,11.23
2022-12-01T18:28:44.565Z,12.43
2022-12-01T18:31:13.943Z,11.63
2022-12-01T18:33:42.504Z,11.88
2022-12-01T18:36:12.050Z,11.77
2022-12-01T18:38:39.407Z,10.80
2022-12-01T18:41:06.059Z,12.23
2022-12-01T18:43:33.311Z,11.63
2022-12-01T18:46:03.104Z,11.83
2022-12-01T18:50:59.494Z,11.73
2022-12-01T18:53:26.277Z,12.57
2022-12-01T18:55:52.796Z,12.53
2022-12-01T18:58:19.335Z,11.93
2022-12-01T19:00:45.932Z,13.10
2022-12-01T19:03:14.107Z,11.93
2022-12-01T19:05:41.282Z,11.83
2022-12-01T19:08:08.079Z,12.17
2022-12-01T19:10:34.657Z,11.77
2022-12-01T19:13:01.184Z,11.23
2022-12-01T19:15:27.723Z,12.17
2022-12-01T19:17:54.965Z,11.97
2022-12-01T19:20:22.858Z,10.90
2022-12-01T19:22:49.425Z,11.43
2022-12-01T19:25:15.990Z,11.27
2022-12-01T19:27:42.663Z,13.33
2022-12-01T19:30:10.214Z,15.23
2022-12-01T19:32:36.992Z,14.73
2022-12-01T19:35:04.740Z,13.87
2022-12-01T19:37:32.633Z,14.90
2022-12-01T19:39:59.160Z,16.33
2022-12-01T19:42:26.098Z,14.67
2022-12-01T19:44:52.851Z,15.83
2022-12-01T19:47:22.355Z,14.20
2022-12-01T19:52:15.993Z,14.70
2022-12-01T19:54:43.875Z,14.53
2022-12-01T19:57:10.480Z,13.33
2022-12-01T19:59:37.049Z,13.63
2022-12-01T20:02:03.639Z,14.33
2022-12-01T20:04:30.374Z,13.77
2022-12-01T20:06:56.920Z,13.73
2022-12-01T20:09:23.490Z,14.63
2022-12-01T20:11:51.450Z,13.50
2022-12-01T20:14:18.121Z,13.23
2022-12-01T20:16:44.745Z,13.40
2022-12-01T20:19:11.376Z,13.70
2022-12-01T20:21:42.369Z,13.80
2022-12-01T20:24:12.759Z,12.53
2022-12-01T20:26:42.016Z,13.13
2022-12-01T20:29:11.868Z,13.13
2022-12-01T20:31:38.884Z,12.60
2022-12-01T20:34:07.920Z,13.13
2022-12-01T20:36:34.931Z,13.38
2022-12-01T20:39:01.593Z,13.27
2022-12-01T20:41:28.225Z,13.27
2022-12-01T20:43:54.763Z,13.47
2022-12-01T20:46:22.970Z,12.30
2022-12-01T20:48:49.616Z,12.57
2022-12-01T20:51:16.263Z,12.80
2022-12-01T20:53:59.706Z,11.20
2022-12-01T20:56:29.519Z,12.83
2022-12-01T20:58:56.073Z,13.10
2022-12-01T21:01:24.024Z,12.53
2022-12-01T21:03:53.867Z,12.27
2022-12-01T21:08:49.078Z,12.67
2022-12-01T21:11:18.907Z,12.87
2022-12-01T21:13:46.430Z,11.73
2022-12-01T21:16:26.305Z,11.60
2022-12-01T21:18:55.400Z,11.93
2022-12-01T21:21:24.818Z,11.32
2022-12-01T21:24:11.262Z,13.15
2022-12-01T21:26:39.397Z,12.53
2022-12-01T21:29:17.264Z,11.43
2022-12-01T21:31:45.481Z,13.37
2022-12-01T21:34:17.198Z,12.37
2022-12-01T21:36:44.414Z,11.47
2022-12-01T21:39:14.435Z,11.67
2022-12-01T21:41:41.120Z,12.97
2022-12-01T21:44:13.343Z,10.80
2022-12-01T21:46:41.983Z,11.90
2022-12-01T21:49:19.780Z,10.57
2022-12-01T21:51:47.663Z,11.83
2022-12-01T21:54:18.740Z,10.97
2022-12-01T21:56:45.515Z,11.73
2022-12-01T21:59:18.911Z,11.90
2022-12-01T22:01:46.111Z,11.43
2022-12-01T22:04:19.271Z,11.00
2022-12-01T22:06:48.936Z,11.73
2022-12-01T22:09:23.100Z,11.23
2022-12-01T22:11:52.935Z,12.13
2022-12-01T22:14:22.049Z,11.90
2022-12-01T22:16:52.969Z,12.70
2022-12-01T22:19:27.436Z,11.97
2022-12-01T22:22:00.612Z,12.13
2022-12-01T22:24:29.436Z,12.13
2022-12-01T22:27:11.549Z,11.20
2022-12-01T22:29:41.777Z,11.47
2022-12-01T22:32:44.021Z,12.00
2022-12-01T22:35:22.033Z,10.90
2022-12-01T22:37:50.703Z,13.27
2022-12-01T22:40:32.187Z,10.87
2022-12-01T22:43:00.191Z,11.90
2022-12-01T22:45:26.818Z,10.90
2022-12-01T22:47:56.430Z,12.57
2022-12-01T22:50:28.391Z,10.88
2022-12-01T22:52:59.041Z,10.83
2022-12-01T22:55:25.647Z,12.50
2022-12-01T22:57:52.377Z,10.67
2022-12-01T23:00:22.896Z,10.87
2022-12-01T23:02:50.875Z,10.30
2022-12-01T23:05:23.286Z,11.33
2022-12-01T23:07:52.692Z,11.97
2022-12-01T23:10:22.225Z,11.25
2022-12-01T23:12:50.951Z,10.32
2022-12-01T23:15:25.544Z,11.30
2022-12-01T23:17:52.488Z,11.17
2022-12-01T23:20:31.735Z,10.80
2022-12-01T23:23:02.207Z,11.48
2022-12-01T23:25:29.728Z,10.93
2022-12-01T23:27:59.948Z,10.73
2022-12-01T23:30:27.176Z,10.53
2022-12-01T23:33:11.588Z,10.20
2022-12-01T23:35:41.307Z,12.37
2022-12-01T23:40:40.778Z,10.13
2022-12-01T23:43:14.888Z,10.83
2022-12-01T23:45:41.443Z,9.93
2022-12-01T23:48:18.070Z,10.37
2022-12-01T23:50:45.464Z,10.53
2022-12-01T23:53:26.461Z,10.20
2022-12-01T23:55:53.329Z,10.60
2022-12-01T23:58:20.052Z,10.33
